Windsorville, Connecticut
Current Conditions -  °F | °C
As of 2:51 PM on Friday 28 Nov 2014 (Local Time) from KBDL Reporting Station
Broken Clouds Broken Clouds  
Wind Chill: 26°   Ceiling: 4200
Heat Index: 35°   Visibility: 10mi
Dew Point: 18°   Wind: 15mph
Humidity: 50%   Direction: 310°NW
Pressure: 30.11"   Gusts: NA
Location:  41.9042°N, 72.5445°W
Report Text: KBDL 281951Z 31013KT 10SM BKN042 02/M08 A3011 RMK AO2 SLP197 T00171078
Loading
Personal Weather Stations






























Interactive Weather Map New forecast layout! Learn more

10-Day Weather Forecast

Advertisements
Track Severe Weather on mobile